CSN8401 ZSAM-ZUUU
Flight info
| Callsign | CSN8401 |
|---|---|
| Flight time | 2h 25m |
| Altitude | 34100 |
| Route | NUSPA7Y NUSPA W598 DABER W155 VETIB DCT NUVGA DCT XEBUL DCT MABAG DCT WYN G586 QP B330 ELKAL W179 IGNAK IGNAK9M |
| Aircraft | A21N/M-SDE2E3FGHIRWXY/LB1 |
Departure
| Time | 2026-04-27 09:00 |
|---|---|
| Airport | Xiamen Gaoqi International Airport (ZSAM) |
Arrival
| Time | 2026-04-27 11:25 |
|---|---|
| Airport | Chengdu Shuangliu International Airport (ZUUU) |
| Time | Latitude | Longitude | Altitude | Speed | Heading |
|---|---|---|---|---|---|
| 2026-04-27 08:35 | 24.53964 | 118.12810 | 76 ft | 0 kts | 142° |
| 2026-04-27 08:46 | 24.53969 | 118.12806 | 76 ft | 2 kts | 142° |
| 2026-04-27 08:47 | 24.53981 | 118.12795 | 76 ft | 2 kts | 142° |
| 2026-04-27 08:47 | 24.53989 | 118.12788 | 76 ft | 1 kts | 142° |
| 2026-04-27 08:47 | 24.53999 | 118.12777 | 76 ft | 2 kts | 118° |
| 2026-04-27 08:47 | 24.54004 | 118.12762 | 76 ft | 2 kts | 98° |
| 2026-04-27 08:48 | 24.54004 | 118.12745 | 76 ft | 2 kts | 76° |
| 2026-04-27 08:48 | 24.53999 | 118.12730 | 76 ft | 0 kts | 56° |
| 2026-04-27 08:48 | 24.53995 | 118.12725 | 76 ft | 1 kts | 52° |
| 2026-04-27 08:48 | 24.53994 | 118.12724 | 76 ft | 0 kts | 52° |
| 2026-04-27 08:50 | 24.53996 | 118.12727 | 76 ft | 3 kts | 52° |
| 2026-04-27 08:51 | 24.54015 | 118.12753 | 76 ft | 4 kts | 52° |
| 2026-04-27 08:51 | 24.54036 | 118.12785 | 76 ft | 5 kts | 52° |
| 2026-04-27 08:51 | 24.54060 | 118.12819 | 76 ft | 5 kts | 53° |
| 2026-04-27 08:51 | 24.54086 | 118.12859 | 76 ft | 6 kts | 58° |
| 2026-04-27 08:52 | 24.54113 | 118.12903 | 76 ft | 7 kts | 52° |
| 2026-04-27 08:52 | 24.54144 | 118.12948 | 76 ft | 7 kts | 53° |
| 2026-04-27 08:52 | 24.54178 | 118.12997 | 76 ft | 8 kts | 52° |
| 2026-04-27 08:52 | 24.54215 | 118.13049 | 76 ft | 8 kts | 51° |
| 2026-04-27 08:53 | 24.54256 | 118.13103 | 76 ft | 9 kts | 51° |
| 2026-04-27 08:53 | 24.54298 | 118.13161 | 76 ft | 10 kts | 51° |
| 2026-04-27 08:53 | 24.54343 | 118.13224 | 76 ft | 10 kts | 51° |
| 2026-04-27 08:53 | 24.54392 | 118.13287 | 76 ft | 10 kts | 50° |
| 2026-04-27 08:54 | 24.54442 | 118.13353 | 76 ft | 11 kts | 51° |
| 2026-04-27 08:54 | 24.54492 | 118.13423 | 76 ft | 11 kts | 52° |
| 2026-04-27 08:54 | 24.54547 | 118.13488 | 76 ft | 11 kts | 25° |
| 2026-04-27 08:54 | 24.54618 | 118.13460 | 76 ft | 11 kts | 323° |
| 2026-04-27 08:55 | 24.54690 | 118.13452 | 76 ft | 11 kts | 45° |
| 2026-04-27 08:55 | 24.54742 | 118.13522 | 76 ft | 11 kts | 51° |
| 2026-04-27 08:55 | 24.54795 | 118.13594 | 76 ft | 12 kts | 52° |
| 2026-04-27 08:55 | 24.54848 | 118.13669 | 76 ft | 12 kts | 52° |
| 2026-04-27 08:56 | 24.54902 | 118.13744 | 76 ft | 12 kts | 51° |
| 2026-04-27 08:56 | 24.54957 | 118.13821 | 76 ft | 12 kts | 52° |
| 2026-04-27 08:56 | 24.55011 | 118.13898 | 76 ft | 12 kts | 52° |
| 2026-04-27 08:56 | 24.55068 | 118.13975 | 76 ft | 12 kts | 51° |
| 2026-04-27 08:57 | 24.55192 | 118.14043 | 76 ft | 0 kts | 323° |
| 2026-04-27 08:57 | 24.55193 | 118.14043 | 76 ft | 0 kts | 323° |
| 2026-04-27 08:57 | 24.55204 | 118.14035 | 76 ft | 3 kts | 323° |
| 2026-04-27 08:58 | 24.55234 | 118.14010 | 76 ft | 7 kts | 320° |
| 2026-04-27 08:58 | 24.55253 | 118.13952 | 76 ft | 9 kts | 257° |
| 2026-04-27 08:58 | 24.55214 | 118.13885 | 76 ft | 9 kts | 232° |
| 2026-04-27 08:58 | 24.55213 | 118.13883 | 76 ft | 0 kts | 232° |
| 2026-04-27 08:59 | 24.55208 | 118.13876 | 76 ft | 12 kts | 232° |
| 2026-04-27 08:59 | 24.55000 | 118.13586 | 76 ft | 81 kts | 231° |
| 2026-04-27 08:59 | 24.54523 | 118.12916 | 77 ft | 137 kts | 232° |
| 2026-04-27 08:59 | 24.53817 | 118.11939 | 137 ft | 176 kts | 231° |
| 2026-04-27 09:00 | 24.53382 | 118.11317 | 403 ft | 177 kts | 231° |
| 2026-04-27 09:00 | 24.52662 | 118.10292 | 877 ft | 182 kts | 231° |
| 2026-04-27 09:00 | 24.51880 | 118.09167 | 1440 ft | 186 kts | 231° |
| 2026-04-27 09:00 | 24.51086 | 118.08018 | 1976 ft | 189 kts | 232° |
| 2026-04-27 09:01 | 24.50271 | 118.06871 | 2467 ft | 185 kts | 230° |
| 2026-04-27 09:01 | 24.49479 | 118.05801 | 3038 ft | 174 kts | 230° |
| 2026-04-27 09:01 | 24.48751 | 118.04813 | 3581 ft | 162 kts | 230° |
| 2026-04-27 09:01 | 24.48041 | 118.03840 | 3908 ft | 163 kts | 231° |
| 2026-04-27 09:02 | 24.47319 | 118.02842 | 4225 ft | 165 kts | 231° |
| 2026-04-27 09:02 | 24.46606 | 118.01852 | 4575 ft | 165 kts | 231° |
| 2026-04-27 09:02 | 24.45899 | 118.00866 | 4926 ft | 165 kts | 231° |
| 2026-04-27 09:02 | 24.45142 | 117.99902 | 5262 ft | 166 kts | 216° |
| 2026-04-27 09:03 | 24.44057 | 117.99478 | 5535 ft | 170 kts | 186° |
| 2026-04-27 09:03 | 24.42827 | 117.99363 | 5813 ft | 178 kts | 186° |
| 2026-04-27 09:03 | 24.41574 | 117.99235 | 6122 ft | 184 kts | 186° |
| 2026-04-27 09:03 | 24.40279 | 117.99085 | 6434 ft | 192 kts | 187° |
| 2026-04-27 09:04 | 24.38904 | 117.98914 | 6759 ft | 201 kts | 187° |
| 2026-04-27 09:04 | 24.37481 | 117.98732 | 7072 ft | 210 kts | 187° |
| 2026-04-27 09:04 | 24.35997 | 117.98521 | 7379 ft | 219 kts | 192° |
| 2026-04-27 09:04 | 24.34615 | 117.97792 | 7665 ft | 222 kts | 222° |
| 2026-04-27 09:05 | 24.33617 | 117.96497 | 8199 ft | 219 kts | 232° |
| 2026-04-27 09:05 | 24.32693 | 117.95161 | 8726 ft | 216 kts | 232° |
| 2026-04-27 09:05 | 24.31797 | 117.93871 | 9225 ft | 212 kts | 232° |
| 2026-04-27 09:05 | 24.30914 | 117.92615 | 9664 ft | 209 kts | 232° |
| 2026-04-27 09:06 | 24.29989 | 117.91308 | 9957 ft | 217 kts | 232° |
| 2026-04-27 09:06 | 24.29042 | 117.89977 | 10282 ft | 224 kts | 231° |
| 2026-04-27 09:06 | 24.28064 | 117.88611 | 10585 ft | 231 kts | 232° |
| 2026-04-27 09:06 | 24.27055 | 117.87194 | 10920 ft | 239 kts | 232° |
| 2026-04-27 09:07 | 24.26008 | 117.85724 | 11222 ft | 246 kts | 232° |
| 2026-04-27 09:07 | 24.24895 | 117.84216 | 11524 ft | 254 kts | 228° |
| 2026-04-27 09:07 | 24.23658 | 117.82786 | 11844 ft | 261 kts | 225° |
| 2026-04-27 09:07 | 24.22345 | 117.81372 | 12156 ft | 269 kts | 224° |
| 2026-04-27 09:08 | 24.20991 | 117.79920 | 12466 ft | 277 kts | 224° |
| 2026-04-27 09:08 | 24.19605 | 117.78435 | 12824 ft | 282 kts | 225° |
| 2026-04-27 09:08 | 24.18171 | 117.76898 | 13196 ft | 288 kts | 225° |
| 2026-04-27 09:08 | 24.16728 | 117.75350 | 13557 ft | 293 kts | 225° |
| 2026-04-27 09:09 | 24.15243 | 117.73756 | 13940 ft | 299 kts | 225° |
| 2026-04-27 09:09 | 24.13749 | 117.72154 | 14306 ft | 304 kts | 225° |
| 2026-04-27 09:09 | 24.12221 | 117.70514 | 14666 ft | 308 kts | 225° |
| 2026-04-27 09:09 | 24.10675 | 117.68858 | 15042 ft | 313 kts | 225° |
| 2026-04-27 09:10 | 24.09111 | 117.67181 | 15401 ft | 317 kts | 225° |
| 2026-04-27 09:10 | 24.07506 | 117.65454 | 15782 ft | 320 kts | 227° |
| 2026-04-27 09:10 | 24.06228 | 117.63460 | 16302 ft | 317 kts | 246° |
| 2026-04-27 09:10 | 24.05677 | 117.61132 | 16832 ft | 315 kts | 265° |
| 2026-04-27 09:11 | 24.05802 | 117.58764 | 17372 ft | 313 kts | 276° |
| 2026-04-27 09:11 | 24.06093 | 117.56407 | 17894 ft | 310 kts | 276° |
| 2026-04-27 09:11 | 24.06385 | 117.54061 | 18270 ft | 311 kts | 276° |
| 2026-04-27 09:11 | 24.06677 | 117.51668 | 18616 ft | 314 kts | 276° |
| 2026-04-27 09:12 | 24.06965 | 117.49283 | 18952 ft | 317 kts | 276° |
| 2026-04-27 09:12 | 24.07255 | 117.46871 | 19284 ft | 319 kts | 276° |
| 2026-04-27 09:12 | 24.07538 | 117.44484 | 19605 ft | 321 kts | 276° |
| 2026-04-27 09:12 | 24.07825 | 117.42056 | 19935 ft | 323 kts | 276° |
| 2026-04-27 09:13 | 24.08116 | 117.39591 | 20264 ft | 324 kts | 276° |
| 2026-04-27 09:13 | 24.08401 | 117.37163 | 20588 ft | 325 kts | 276° |
| 2026-04-27 09:13 | 24.08688 | 117.34716 | 20919 ft | 328 kts | 275° |
| 2026-04-27 09:13 | 24.08982 | 117.32190 | 21318 ft | 333 kts | 276° |
| 2026-04-27 09:14 | 24.09275 | 117.29671 | 21786 ft | 335 kts | 276° |
| 2026-04-27 09:14 | 24.09574 | 117.27117 | 22257 ft | 337 kts | 276° |
| 2026-04-27 09:14 | 24.09868 | 117.24603 | 22730 ft | 337 kts | 276° |
| 2026-04-27 09:14 | 24.10162 | 117.22066 | 23225 ft | 337 kts | 276° |
| 2026-04-27 09:15 | 24.10459 | 117.19513 | 23722 ft | 336 kts | 276° |
| 2026-04-27 09:15 | 24.10753 | 117.16975 | 24120 ft | 338 kts | 276° |
| 2026-04-27 09:15 | 24.11050 | 117.14403 | 24277 ft | 344 kts | 276° |
| 2026-04-27 09:15 | 24.11350 | 117.11806 | 24406 ft | 350 kts | 276° |
| 2026-04-27 09:16 | 24.11660 | 117.09123 | 24534 ft | 356 kts | 276° |
| 2026-04-27 09:16 | 24.11970 | 117.06428 | 24655 ft | 362 kts | 276° |
| 2026-04-27 09:16 | 24.12289 | 117.03655 | 24778 ft | 367 kts | 276° |
| 2026-04-27 09:16 | 24.12611 | 117.00863 | 24897 ft | 373 kts | 276° |
| 2026-04-27 09:17 | 24.12934 | 116.98038 | 25012 ft | 379 kts | 276° |
| 2026-04-27 09:17 | 24.13263 | 116.95151 | 25277 ft | 380 kts | 276° |
| 2026-04-27 09:17 | 24.13587 | 116.92311 | 25650 ft | 378 kts | 276° |
| 2026-04-27 09:17 | 24.13914 | 116.89441 | 26030 ft | 376 kts | 276° |
| 2026-04-27 09:18 | 24.14209 | 116.86643 | 26399 ft | 373 kts | 275° |
| 2026-04-27 09:18 | 24.14380 | 116.83823 | 26774 ft | 371 kts | 272° |
| 2026-04-27 09:18 | 24.14500 | 116.80988 | 27153 ft | 368 kts | 272° |
| 2026-04-27 09:18 | 24.14614 | 116.78230 | 27523 ft | 366 kts | 272° |
| 2026-04-27 09:19 | 24.14729 | 116.75436 | 27903 ft | 363 kts | 272° |
| 2026-04-27 09:19 | 24.14840 | 116.72688 | 28270 ft | 361 kts | 272° |
| 2026-04-27 09:19 | 24.14953 | 116.69932 | 28399 ft | 366 kts | 272° |
| 2026-04-27 09:20 | 24.15180 | 116.64285 | 28593 ft | 376 kts | 272° |
| 2026-04-27 09:20 | 24.15413 | 116.58511 | 28796 ft | 385 kts | 273° |
| 2026-04-27 09:21 | 24.15648 | 116.52587 | 28990 ft | 394 kts | 273° |
| 2026-04-27 09:21 | 24.15884 | 116.46556 | 29186 ft | 402 kts | 273° |
| 2026-04-27 09:22 | 24.16241 | 116.40400 | 29366 ft | 410 kts | 275° |
| 2026-04-27 09:22 | 24.16716 | 116.34130 | 29624 ft | 415 kts | 275° |
| 2026-04-27 09:22 | 24.16951 | 116.31016 | 29928 ft | 414 kts | 275° |
| 2026-04-27 09:23 | 24.17186 | 116.27874 | 30244 ft | 412 kts | 275° |
| 2026-04-27 09:23 | 24.17419 | 116.24764 | 30557 ft | 410 kts | 275° |
| 2026-04-27 09:23 | 24.17648 | 116.21663 | 30871 ft | 409 kts | 275° |
| 2026-04-27 09:23 | 24.17878 | 116.18568 | 31182 ft | 407 kts | 275° |
| 2026-04-27 09:24 | 24.18109 | 116.15445 | 31501 ft | 405 kts | 275° |
| 2026-04-27 09:24 | 24.18334 | 116.12407 | 31815 ft | 403 kts | 275° |
| 2026-04-27 09:24 | 24.18558 | 116.09352 | 32134 ft | 400 kts | 275° |
| 2026-04-27 09:24 | 24.18782 | 116.06315 | 32451 ft | 398 kts | 275° |
| 2026-04-27 09:25 | 24.19004 | 116.03274 | 32771 ft | 396 kts | 275° |
| 2026-04-27 09:25 | 24.19222 | 116.00275 | 33089 ft | 393 kts | 275° |
| 2026-04-27 09:25 | 24.19439 | 115.97330 | 33346 ft | 393 kts | 275° |
| 2026-04-27 09:25 | 24.19658 | 115.94326 | 33548 ft | 392 kts | 275° |
| 2026-04-27 09:26 | 24.19877 | 115.91320 | 33672 ft | 395 kts | 275° |
| 2026-04-27 09:26 | 24.20091 | 115.88370 | 33953 ft | 393 kts | 275° |
| 2026-04-27 09:26 | 24.20307 | 115.85367 | 33981 ft | 397 kts | 275° |
| 2026-04-27 09:27 | 24.20743 | 115.79272 | 33989 ft | 406 kts | 275° |
| 2026-04-27 09:27 | 24.21187 | 115.73038 | 33991 ft | 414 kts | 275° |
| 2026-04-27 09:28 | 24.21637 | 115.66712 | 33990 ft | 422 kts | 275° |
| 2026-04-27 09:28 | 24.22089 | 115.60287 | 33990 ft | 429 kts | 275° |
| 2026-04-27 09:29 | 24.22548 | 115.53698 | 33990 ft | 434 kts | 275° |
| 2026-04-27 09:29 | 24.23008 | 115.47076 | 33991 ft | 439 kts | 275° |
| 2026-04-27 09:30 | 24.23522 | 115.40389 | 33990 ft | 443 kts | 276° |
| 2026-04-27 09:30 | 24.24130 | 115.33655 | 33991 ft | 446 kts | 275° |
| 2026-04-27 09:31 | 24.24731 | 115.26938 | 33990 ft | 449 kts | 275° |
| 2026-04-27 09:31 | 24.25331 | 115.20081 | 33988 ft | 451 kts | 275° |
| 2026-04-27 09:32 | 24.25921 | 115.13279 | 33987 ft | 450 kts | 275° |
| 2026-04-27 09:32 | 24.26510 | 115.06443 | 33989 ft | 451 kts | 275° |
| 2026-04-27 09:33 | 24.27096 | 114.99612 | 33990 ft | 452 kts | 275° |
| 2026-04-27 09:33 | 24.27679 | 114.92780 | 33990 ft | 452 kts | 275° |
| 2026-04-27 09:34 | 24.28263 | 114.85902 | 33993 ft | 452 kts | 275° |
| 2026-04-27 09:34 | 24.28863 | 114.79035 | 33996 ft | 453 kts | 275° |
| 2026-04-27 09:35 | 24.29466 | 114.72201 | 34000 ft | 453 kts | 275° |
| 2026-04-27 09:35 | 24.30071 | 114.65309 | 34005 ft | 452 kts | 275° |
| 2026-04-27 09:36 | 24.30663 | 114.58469 | 34010 ft | 453 kts | 275° |
| 2026-04-27 09:36 | 24.31255 | 114.51623 | 34015 ft | 453 kts | 275° |
| 2026-04-27 09:37 | 24.31890 | 114.44715 | 34019 ft | 453 kts | 276° |
| 2026-04-27 09:37 | 24.32540 | 114.37843 | 34026 ft | 453 kts | 276° |
| 2026-04-27 09:38 | 24.33181 | 114.30992 | 34030 ft | 453 kts | 275° |
| 2026-04-27 09:38 | 24.33819 | 114.24101 | 34032 ft | 454 kts | 275° |
| 2026-04-27 09:39 | 24.34450 | 114.17230 | 34029 ft | 454 kts | 275° |
| 2026-04-27 09:39 | 24.35086 | 114.10319 | 34019 ft | 455 kts | 275° |
| 2026-04-27 09:40 | 24.35809 | 114.03425 | 34017 ft | 456 kts | 276° |
| 2026-04-27 09:40 | 24.36544 | 113.96549 | 34004 ft | 455 kts | 276° |
| 2026-04-27 09:41 | 24.37266 | 113.89697 | 33994 ft | 456 kts | 276° |
| 2026-04-27 09:41 | 24.37989 | 113.82776 | 33985 ft | 456 kts | 276° |
| 2026-04-27 09:42 | 24.38702 | 113.75908 | 33980 ft | 456 kts | 276° |
| 2026-04-27 09:42 | 24.39417 | 113.68967 | 33981 ft | 458 kts | 276° |
| 2026-04-27 09:43 | 24.40126 | 113.62071 | 33984 ft | 458 kts | 276° |
| 2026-04-27 09:43 | 24.40834 | 113.55130 | 33991 ft | 457 kts | 276° |
| 2026-04-27 09:44 | 24.41539 | 113.48199 | 33995 ft | 459 kts | 276° |
| 2026-04-27 09:44 | 24.42242 | 113.41270 | 34009 ft | 458 kts | 276° |
| 2026-04-27 09:45 | 24.42965 | 113.34290 | 34029 ft | 458 kts | 276° |
| 2026-04-27 09:45 | 24.43682 | 113.27354 | 34046 ft | 459 kts | 275° |
| 2026-04-27 09:46 | 24.44398 | 113.20377 | 34055 ft | 459 kts | 275° |
| 2026-04-27 09:46 | 24.45061 | 113.13867 | 34049 ft | 460 kts | 275° |
| 2026-04-27 09:47 | 24.45763 | 113.06953 | 34034 ft | 459 kts | 275° |
| 2026-04-27 09:47 | 24.46466 | 112.99979 | 34016 ft | 460 kts | 275° |
| 2026-04-27 09:48 | 24.47160 | 112.93018 | 34012 ft | 460 kts | 275° |
| 2026-04-27 09:48 | 24.47849 | 112.86078 | 34006 ft | 460 kts | 275° |
| 2026-04-27 09:49 | 24.48537 | 112.79079 | 34002 ft | 461 kts | 275° |
| 2026-04-27 09:49 | 24.49223 | 112.72109 | 33997 ft | 460 kts | 275° |
| 2026-04-27 09:50 | 24.49911 | 112.65147 | 33991 ft | 461 kts | 275° |
| 2026-04-27 09:50 | 24.50596 | 112.58151 | 34002 ft | 462 kts | 275° |
| 2026-04-27 09:51 | 24.51279 | 112.51144 | 34004 ft | 461 kts | 275° |
| 2026-04-27 09:51 | 24.51953 | 112.44192 | 34010 ft | 462 kts | 275° |
| 2026-04-27 09:52 | 24.52627 | 112.37181 | 34009 ft | 460 kts | 275° |
| 2026-04-27 09:52 | 24.53296 | 112.30207 | 34009 ft | 462 kts | 275° |
| 2026-04-27 09:53 | 24.53966 | 112.23183 | 34005 ft | 462 kts | 275° |
| 2026-04-27 09:53 | 24.54628 | 112.16225 | 34017 ft | 462 kts | 275° |
| 2026-04-27 09:54 | 24.55296 | 112.09171 | 34018 ft | 462 kts | 275° |
| 2026-04-27 09:54 | 24.55951 | 112.02189 | 34021 ft | 463 kts | 275° |
| 2026-04-27 09:55 | 24.56610 | 111.95149 | 34030 ft | 462 kts | 275° |
| 2026-04-27 09:55 | 24.57582 | 111.84675 | 34019 ft | 461 kts | 275° |
| 2026-04-27 09:56 | 24.58228 | 111.77679 | 34011 ft | 460 kts | 275° |
| 2026-04-27 09:56 | 24.58868 | 111.70721 | 33999 ft | 460 kts | 275° |
| 2026-04-27 09:57 | 24.59507 | 111.63724 | 33989 ft | 460 kts | 275° |
| 2026-04-27 09:57 | 24.60142 | 111.56750 | 33975 ft | 460 kts | 275° |
| 2026-04-27 09:58 | 24.60777 | 111.49719 | 33964 ft | 461 kts | 275° |
| 2026-04-27 09:58 | 24.61406 | 111.42725 | 33960 ft | 462 kts | 275° |
| 2026-04-27 09:59 | 24.62030 | 111.35736 | 33960 ft | 461 kts | 275° |
| 2026-04-27 09:59 | 24.62653 | 111.28728 | 33960 ft | 460 kts | 275° |
| 2026-04-27 10:00 | 24.63265 | 111.21704 | 33964 ft | 459 kts | 275° |
| 2026-04-27 10:00 | 24.63868 | 111.14705 | 33963 ft | 459 kts | 275° |
| 2026-04-27 10:01 | 24.64468 | 111.07712 | 33968 ft | 459 kts | 275° |
| 2026-04-27 10:01 | 24.65061 | 111.00751 | 33973 ft | 460 kts | 275° |
| 2026-04-27 10:02 | 24.65654 | 110.93757 | 33975 ft | 460 kts | 275° |
| 2026-04-27 10:02 | 24.66392 | 110.86764 | 33971 ft | 459 kts | 281° |
| 2026-04-27 10:03 | 24.68258 | 110.80071 | 33965 ft | 459 kts | 292° |
| 2026-04-27 10:03 | 24.71347 | 110.73972 | 33959 ft | 461 kts | 304° |
| 2026-04-27 10:04 | 24.75578 | 110.68626 | 33957 ft | 463 kts | 314° |
| 2026-04-27 10:04 | 24.80226 | 110.63734 | 33951 ft | 463 kts | 315° |
| 2026-04-27 10:05 | 24.84922 | 110.58819 | 33951 ft | 463 kts | 315° |
| 2026-04-27 10:05 | 24.89581 | 110.53915 | 33958 ft | 464 kts | 315° |
| 2026-04-27 10:06 | 24.94262 | 110.48972 | 33955 ft | 463 kts | 315° |
| 2026-04-27 10:06 | 24.98926 | 110.44040 | 33955 ft | 463 kts | 314° |
| 2026-04-27 10:07 | 25.03547 | 110.39160 | 33949 ft | 463 kts | 315° |
| 2026-04-27 10:07 | 25.08229 | 110.34219 | 33947 ft | 464 kts | 314° |
| 2026-04-27 10:08 | 25.12914 | 110.29266 | 33943 ft | 465 kts | 314° |
| 2026-04-27 10:08 | 25.17573 | 110.24327 | 33940 ft | 464 kts | 314° |
| 2026-04-27 10:09 | 25.22242 | 110.19395 | 33938 ft | 463 kts | 315° |
| 2026-04-27 10:09 | 25.26944 | 110.14487 | 33936 ft | 463 kts | 314° |
| 2026-04-27 10:10 | 25.31621 | 110.09596 | 33937 ft | 463 kts | 314° |
| 2026-04-27 10:10 | 25.36283 | 110.04709 | 33943 ft | 463 kts | 314° |
| 2026-04-27 10:11 | 25.40961 | 109.99795 | 33949 ft | 463 kts | 314° |
| 2026-04-27 10:11 | 25.45632 | 109.94883 | 33960 ft | 462 kts | 314° |
| 2026-04-27 10:12 | 25.50285 | 109.89983 | 33968 ft | 462 kts | 314° |
| 2026-04-27 10:12 | 25.54927 | 109.85088 | 33971 ft | 462 kts | 314° |
| 2026-04-27 10:13 | 25.59587 | 109.80170 | 33971 ft | 461 kts | 314° |
| 2026-04-27 10:13 | 25.64240 | 109.75250 | 33965 ft | 461 kts | 314° |
| 2026-04-27 10:14 | 25.68871 | 109.70349 | 33955 ft | 461 kts | 314° |
| 2026-04-27 10:14 | 25.73251 | 109.65195 | 33946 ft | 459 kts | 307° |
| 2026-04-27 10:15 | 25.76879 | 109.59355 | 33941 ft | 457 kts | 298° |
| 2026-04-27 10:15 | 25.79639 | 109.52994 | 33942 ft | 456 kts | 290° |
| 2026-04-27 10:16 | 25.81577 | 109.46320 | 33941 ft | 455 kts | 285° |
| 2026-04-27 10:16 | 25.83339 | 109.39574 | 33942 ft | 455 kts | 286° |
| 2026-04-27 10:17 | 25.85096 | 109.32858 | 33945 ft | 455 kts | 285° |
| 2026-04-27 10:17 | 25.86859 | 109.26116 | 33949 ft | 455 kts | 285° |
| 2026-04-27 10:18 | 25.88624 | 109.19372 | 33956 ft | 454 kts | 285° |
| 2026-04-27 10:18 | 25.90372 | 109.12672 | 33949 ft | 454 kts | 285° |
| 2026-04-27 10:19 | 25.92131 | 109.05920 | 33947 ft | 453 kts | 285° |
| 2026-04-27 10:19 | 25.93909 | 108.99190 | 33945 ft | 454 kts | 286° |
| 2026-04-27 10:20 | 25.95699 | 108.92484 | 33937 ft | 454 kts | 286° |
| 2026-04-27 10:20 | 25.97482 | 108.85770 | 33943 ft | 453 kts | 286° |
| 2026-04-27 10:21 | 25.99248 | 108.79084 | 33956 ft | 451 kts | 286° |
| 2026-04-27 10:21 | 26.01010 | 108.72414 | 33972 ft | 448 kts | 286° |
| 2026-04-27 10:22 | 26.02778 | 108.65776 | 33976 ft | 446 kts | 287° |
| 2026-04-27 10:22 | 26.04532 | 108.59189 | 33970 ft | 446 kts | 287° |
| 2026-04-27 10:23 | 26.06284 | 108.52575 | 33964 ft | 447 kts | 287° |
| 2026-04-27 10:23 | 26.08039 | 108.45940 | 33970 ft | 447 kts | 287° |
| 2026-04-27 10:24 | 26.10030 | 108.39403 | 33983 ft | 447 kts | 291° |
| 2026-04-27 10:24 | 26.12570 | 108.33075 | 33994 ft | 449 kts | 295° |
| 2026-04-27 10:25 | 26.15279 | 108.26816 | 34012 ft | 448 kts | 295° |
| 2026-04-27 10:25 | 26.17986 | 108.20565 | 34030 ft | 449 kts | 295° |
| 2026-04-27 10:26 | 26.20690 | 108.14304 | 34032 ft | 449 kts | 295° |
| 2026-04-27 10:26 | 26.23382 | 108.08063 | 34021 ft | 449 kts | 295° |
| 2026-04-27 10:27 | 26.26088 | 108.01780 | 34013 ft | 450 kts | 295° |
| 2026-04-27 10:27 | 26.28790 | 107.95494 | 34009 ft | 450 kts | 295° |
| 2026-04-27 10:28 | 26.31506 | 107.89162 | 34008 ft | 450 kts | 295° |
| 2026-04-27 10:28 | 26.34190 | 107.82901 | 34004 ft | 451 kts | 295° |
| 2026-04-27 10:29 | 26.36886 | 107.76597 | 33999 ft | 451 kts | 295° |
| 2026-04-27 10:29 | 26.39586 | 107.70275 | 33999 ft | 450 kts | 295° |
| 2026-04-27 10:30 | 26.42285 | 107.63942 | 34006 ft | 451 kts | 295° |
| 2026-04-27 10:30 | 26.44961 | 107.57652 | 34012 ft | 452 kts | 295° |
| 2026-04-27 10:31 | 26.47677 | 107.51265 | 34021 ft | 452 kts | 295° |
| 2026-04-27 10:31 | 26.50364 | 107.44935 | 34046 ft | 452 kts | 295° |
| 2026-04-27 10:32 | 26.53046 | 107.38591 | 34044 ft | 453 kts | 294° |
| 2026-04-27 10:32 | 26.55729 | 107.32249 | 34043 ft | 453 kts | 294° |
| 2026-04-27 10:33 | 26.58437 | 107.25857 | 34041 ft | 452 kts | 294° |
| 2026-04-27 10:33 | 26.61115 | 107.19520 | 34040 ft | 452 kts | 294° |
| 2026-04-27 10:34 | 26.63793 | 107.13173 | 34039 ft | 452 kts | 294° |
| 2026-04-27 10:34 | 26.66493 | 107.06829 | 34032 ft | 452 kts | 294° |
| 2026-04-27 10:35 | 26.69179 | 107.00509 | 34026 ft | 453 kts | 294° |
| 2026-04-27 10:35 | 26.71886 | 106.94121 | 34036 ft | 452 kts | 294° |
| 2026-04-27 10:36 | 26.74598 | 106.87761 | 34045 ft | 453 kts | 296° |
| 2026-04-27 10:36 | 26.77776 | 106.81681 | 34058 ft | 455 kts | 302° |
| 2026-04-27 10:37 | 26.81598 | 106.76025 | 34069 ft | 456 kts | 308° |
| 2026-04-27 10:37 | 26.86004 | 106.70906 | 34083 ft | 457 kts | 315° |
| 2026-04-27 10:38 | 26.90786 | 106.66176 | 34083 ft | 458 kts | 316° |
| 2026-04-27 10:38 | 26.95566 | 106.61506 | 34082 ft | 458 kts | 316° |
| 2026-04-27 10:39 | 27.00363 | 106.56807 | 34082 ft | 458 kts | 316° |
| 2026-04-27 10:39 | 27.05160 | 106.52097 | 34075 ft | 458 kts | 316° |
| 2026-04-27 10:40 | 27.09974 | 106.47361 | 34069 ft | 458 kts | 316° |
| 2026-04-27 10:40 | 27.14741 | 106.42664 | 34066 ft | 458 kts | 316° |
| 2026-04-27 10:41 | 27.19540 | 106.37932 | 34069 ft | 458 kts | 316° |
| 2026-04-27 10:41 | 27.24364 | 106.33234 | 34074 ft | 459 kts | 316° |
| 2026-04-27 10:42 | 27.29212 | 106.28529 | 34073 ft | 457 kts | 316° |
| 2026-04-27 10:42 | 27.34020 | 106.23851 | 34072 ft | 458 kts | 316° |
| 2026-04-27 10:43 | 27.38843 | 106.19144 | 34068 ft | 458 kts | 316° |
| 2026-04-27 10:43 | 27.43665 | 106.14432 | 34068 ft | 459 kts | 316° |
| 2026-04-27 10:44 | 27.48457 | 106.09744 | 34065 ft | 458 kts | 316° |
| 2026-04-27 10:44 | 27.53280 | 106.05021 | 34065 ft | 459 kts | 316° |
| 2026-04-27 10:45 | 27.58105 | 106.00286 | 34057 ft | 459 kts | 316° |
| 2026-04-27 10:45 | 27.62912 | 105.95565 | 34056 ft | 459 kts | 316° |
| 2026-04-27 10:46 | 27.67591 | 105.90682 | 34063 ft | 457 kts | 310° |
| 2026-04-27 10:46 | 27.71549 | 105.85113 | 34056 ft | 453 kts | 302° |
| 2026-04-27 10:47 | 27.74645 | 105.78937 | 34058 ft | 451 kts | 293° |
| 2026-04-27 10:47 | 27.76842 | 105.72346 | 34059 ft | 450 kts | 286° |
| 2026-04-27 10:48 | 27.78709 | 105.65638 | 34068 ft | 449 kts | 286° |
| 2026-04-27 10:48 | 27.80834 | 105.59011 | 34065 ft | 450 kts | 291° |
| 2026-04-27 10:49 | 27.83326 | 105.52517 | 34071 ft | 450 kts | 292° |
| 2026-04-27 10:49 | 27.85838 | 105.46029 | 34076 ft | 450 kts | 292° |
| 2026-04-27 10:50 | 27.88357 | 105.39548 | 34076 ft | 450 kts | 293° |
| 2026-04-27 10:50 | 27.91124 | 105.33225 | 34083 ft | 450 kts | 294° |
| 2026-04-27 10:51 | 27.93993 | 105.26864 | 34081 ft | 452 kts | 296° |
| 2026-04-27 10:51 | 27.97463 | 105.20945 | 34089 ft | 454 kts | 305° |
| 2026-04-27 10:52 | 28.01767 | 105.15666 | 34082 ft | 458 kts | 314° |
| 2026-04-27 10:52 | 28.06794 | 105.11214 | 34075 ft | 462 kts | 323° |
| 2026-04-27 10:53 | 28.15002 | 105.05437 | 34071 ft | 463 kts | 324° |
| 2026-04-27 10:54 | 28.20499 | 105.01608 | 34075 ft | 464 kts | 324° |
| 2026-04-27 10:54 | 28.26012 | 104.97752 | 34087 ft | 464 kts | 324° |
| 2026-04-27 10:55 | 28.31517 | 104.93893 | 34082 ft | 464 kts | 324° |
| 2026-04-27 10:55 | 28.37012 | 104.90033 | 34070 ft | 465 kts | 324° |
| 2026-04-27 10:56 | 28.42511 | 104.86186 | 33659 ft | 459 kts | 325° |
| 2026-04-27 10:56 | 28.45203 | 104.84312 | 33270 ft | 453 kts | 324° |
| 2026-04-27 10:56 | 28.47881 | 104.82445 | 33068 ft | 452 kts | 324° |
| 2026-04-27 10:56 | 28.50583 | 104.80556 | 32910 ft | 451 kts | 324° |
| 2026-04-27 10:57 | 28.53230 | 104.78702 | 32785 ft | 451 kts | 324° |
| 2026-04-27 10:57 | 28.55928 | 104.76812 | 32684 ft | 450 kts | 324° |
| 2026-04-27 10:57 | 28.58566 | 104.74964 | 32599 ft | 449 kts | 324° |
| 2026-04-27 10:58 | 28.63897 | 104.71223 | 32449 ft | 449 kts | 324° |
| 2026-04-27 10:58 | 28.69223 | 104.67481 | 32358 ft | 449 kts | 324° |
| 2026-04-27 10:59 | 28.74543 | 104.63734 | 32322 ft | 449 kts | 324° |
| 2026-04-27 10:59 | 28.79840 | 104.60001 | 32333 ft | 449 kts | 324° |
| 2026-04-27 11:00 | 28.87804 | 104.54378 | 32174 ft | 447 kts | 324° |
| 2026-04-27 11:00 | 28.90453 | 104.52497 | 32020 ft | 446 kts | 324° |
| 2026-04-27 11:00 | 28.93081 | 104.50626 | 31885 ft | 445 kts | 324° |
| 2026-04-27 11:01 | 28.95713 | 104.48752 | 31762 ft | 443 kts | 324° |
| 2026-04-27 11:01 | 28.98336 | 104.46883 | 31561 ft | 443 kts | 324° |
| 2026-04-27 11:01 | 29.00955 | 104.45014 | 31303 ft | 441 kts | 324° |
| 2026-04-27 11:01 | 29.03540 | 104.43168 | 31048 ft | 440 kts | 324° |
| 2026-04-27 11:02 | 29.06118 | 104.41325 | 30792 ft | 439 kts | 324° |
| 2026-04-27 11:02 | 29.08740 | 104.39450 | 30533 ft | 438 kts | 324° |
| 2026-04-27 11:02 | 29.11292 | 104.37626 | 30278 ft | 437 kts | 324° |
| 2026-04-27 11:02 | 29.13880 | 104.35774 | 30019 ft | 435 kts | 324° |
| 2026-04-27 11:03 | 29.16461 | 104.33923 | 29763 ft | 434 kts | 324° |
| 2026-04-27 11:03 | 29.19019 | 104.32091 | 29398 ft | 432 kts | 324° |
| 2026-04-27 11:03 | 29.21535 | 104.30286 | 28880 ft | 430 kts | 324° |
| 2026-04-27 11:03 | 29.24056 | 104.28474 | 28266 ft | 428 kts | 324° |
| 2026-04-27 11:04 | 29.26563 | 104.26672 | 27802 ft | 423 kts | 323° |
| 2026-04-27 11:04 | 29.29007 | 104.24787 | 27281 ft | 419 kts | 321° |
| 2026-04-27 11:04 | 29.31401 | 104.22877 | 26734 ft | 416 kts | 321° |
| 2026-04-27 11:04 | 29.33769 | 104.20975 | 26193 ft | 413 kts | 321° |
| 2026-04-27 11:05 | 29.36098 | 104.19099 | 25672 ft | 411 kts | 321° |
| 2026-04-27 11:05 | 29.38425 | 104.17224 | 25144 ft | 408 kts | 321° |
| 2026-04-27 11:05 | 29.40757 | 104.15346 | 24627 ft | 405 kts | 321° |
| 2026-04-27 11:05 | 29.43059 | 104.13493 | 24105 ft | 403 kts | 321° |
| 2026-04-27 11:06 | 29.45342 | 104.11652 | 23597 ft | 401 kts | 321° |
| 2026-04-27 11:06 | 29.47598 | 104.09834 | 23107 ft | 398 kts | 321° |
| 2026-04-27 11:06 | 29.49857 | 104.08012 | 22621 ft | 396 kts | 321° |
| 2026-04-27 11:06 | 29.52119 | 104.06186 | 22137 ft | 393 kts | 321° |
| 2026-04-27 11:07 | 29.54327 | 104.04403 | 21682 ft | 391 kts | 321° |
| 2026-04-27 11:07 | 29.56562 | 104.02598 | 21210 ft | 388 kts | 321° |
| 2026-04-27 11:07 | 29.58771 | 104.00811 | 20743 ft | 385 kts | 321° |
| 2026-04-27 11:07 | 29.60929 | 103.99064 | 20289 ft | 383 kts | 321° |
| 2026-04-27 11:08 | 29.63118 | 103.97292 | 19821 ft | 380 kts | 321° |
| 2026-04-27 11:08 | 29.65286 | 103.95538 | 19365 ft | 378 kts | 321° |
| 2026-04-27 11:08 | 29.67420 | 103.93808 | 18911 ft | 375 kts | 321° |
| 2026-04-27 11:08 | 29.69540 | 103.92088 | 18457 ft | 373 kts | 322° |
| 2026-04-27 11:09 | 29.71683 | 103.90353 | 17998 ft | 370 kts | 321° |
| 2026-04-27 11:09 | 29.73876 | 103.88801 | 17512 ft | 372 kts | 334° |
| 2026-04-27 11:09 | 29.76403 | 103.88113 | 17013 ft | 376 kts | 355° |
| 2026-04-27 11:09 | 29.78970 | 103.88438 | 16583 ft | 377 kts | 15° |
| 2026-04-27 11:10 | 29.81422 | 103.89506 | 16199 ft | 373 kts | 21° |
| 2026-04-27 11:10 | 29.83800 | 103.90644 | 15776 ft | 370 kts | 21° |
| 2026-04-27 11:10 | 29.86194 | 103.91788 | 15366 ft | 367 kts | 21° |
| 2026-04-27 11:10 | 29.88549 | 103.92900 | 14957 ft | 363 kts | 21° |
| 2026-04-27 11:11 | 29.90869 | 103.93985 | 14580 ft | 359 kts | 20° |
| 2026-04-27 11:11 | 29.93165 | 103.95055 | 14179 ft | 356 kts | 21° |
| 2026-04-27 11:11 | 29.95457 | 103.96119 | 13773 ft | 353 kts | 21° |
| 2026-04-27 11:11 | 29.97732 | 103.97174 | 13356 ft | 350 kts | 21° |
| 2026-04-27 11:12 | 29.99987 | 103.98217 | 12968 ft | 345 kts | 21° |
| 2026-04-27 11:12 | 30.02221 | 103.99251 | 12604 ft | 340 kts | 21° |
| 2026-04-27 11:12 | 30.04391 | 104.00255 | 12265 ft | 334 kts | 22° |
| 2026-04-27 11:12 | 30.06517 | 104.01242 | 11977 ft | 327 kts | 22° |
| 2026-04-27 11:13 | 30.08608 | 104.02213 | 11685 ft | 320 kts | 23° |
| 2026-04-27 11:13 | 30.10669 | 104.03169 | 11392 ft | 313 kts | 23° |
| 2026-04-27 11:13 | 30.12669 | 104.04099 | 11111 ft | 306 kts | 24° |
| 2026-04-27 11:13 | 30.14632 | 104.05011 | 10837 ft | 300 kts | 24° |
| 2026-04-27 11:14 | 30.16537 | 104.05898 | 10560 ft | 293 kts | 25° |
| 2026-04-27 11:14 | 30.18445 | 104.06786 | 10233 ft | 289 kts | 25° |
| 2026-04-27 11:14 | 30.20293 | 104.07646 | 9914 ft | 284 kts | 25° |
| 2026-04-27 11:14 | 30.22101 | 104.08485 | 9593 ft | 280 kts | 24° |
| 2026-04-27 11:15 | 30.23999 | 104.08920 | 9206 ft | 286 kts | 360° |
| 2026-04-27 11:15 | 30.25899 | 104.08140 | 8833 ft | 297 kts | 330° |
| 2026-04-27 11:15 | 30.27260 | 104.06315 | 8463 ft | 307 kts | 301° |
| 2026-04-27 11:15 | 30.28037 | 104.04044 | 8167 ft | 304 kts | 295° |
| 2026-04-27 11:16 | 30.28774 | 104.01776 | 7826 ft | 295 kts | 296° |
| 2026-04-27 11:16 | 30.29497 | 103.99575 | 7326 ft | 290 kts | 292° |
| 2026-04-27 11:16 | 30.29693 | 103.97250 | 6650 ft | 298 kts | 261° |
| 2026-04-27 11:16 | 30.28798 | 103.95139 | 6081 ft | 297 kts | 225° |
| 2026-04-27 11:17 | 30.27101 | 103.93906 | 5784 ft | 288 kts | 198° |
| 2026-04-27 11:17 | 30.25223 | 103.93012 | 5641 ft | 292 kts | 213° |
| 2026-04-27 11:17 | 30.23883 | 103.91329 | 5472 ft | 279 kts | 248° |
| 2026-04-27 11:17 | 30.23581 | 103.89220 | 5197 ft | 262 kts | 285° |
| 2026-04-27 11:18 | 30.24336 | 103.87453 | 4949 ft | 241 kts | 323° |
| 2026-04-27 11:18 | 30.25774 | 103.86678 | 4756 ft | 222 kts | 358° |
| 2026-04-27 11:18 | 30.27289 | 103.86628 | 4555 ft | 215 kts | 355° |
| 2026-04-27 11:18 | 30.28718 | 103.86160 | 4323 ft | 212 kts | 339° |
| 2026-04-27 11:19 | 30.30018 | 103.85373 | 4050 ft | 204 kts | 332° |
| 2026-04-27 11:19 | 30.31203 | 103.84610 | 3954 ft | 187 kts | 347° |
| 2026-04-27 11:19 | 30.32410 | 103.84551 | 4008 ft | 166 kts | 14° |
| 2026-04-27 11:19 | 30.33525 | 103.85035 | 4002 ft | 171 kts | 24° |
| 2026-04-27 11:20 | 30.34589 | 103.85555 | 3970 ft | 157 kts | 22° |
| 2026-04-27 11:20 | 30.35528 | 103.86011 | 3937 ft | 139 kts | 22° |
| 2026-04-27 11:20 | 30.36422 | 103.86437 | 3952 ft | 139 kts | 21° |
| 2026-04-27 11:20 | 30.37336 | 103.86868 | 3969 ft | 140 kts | 21° |
| 2026-04-27 11:21 | 30.38241 | 103.87292 | 3973 ft | 139 kts | 21° |
| 2026-04-27 11:21 | 30.39134 | 103.87708 | 3961 ft | 138 kts | 22° |
| 2026-04-27 11:21 | 30.40034 | 103.88127 | 3977 ft | 138 kts | 21° |
| 2026-04-27 11:21 | 30.40941 | 103.88548 | 3877 ft | 139 kts | 21° |
| 2026-04-27 11:22 | 30.41842 | 103.88967 | 3694 ft | 139 kts | 21° |
| 2026-04-27 11:22 | 30.42738 | 103.89383 | 3524 ft | 139 kts | 21° |
| 2026-04-27 11:22 | 30.43637 | 103.89802 | 3347 ft | 138 kts | 20° |
| 2026-04-27 11:22 | 30.44523 | 103.90215 | 3175 ft | 137 kts | 19° |
| 2026-04-27 11:23 | 30.45409 | 103.90626 | 2995 ft | 137 kts | 20° |
| 2026-04-27 11:23 | 30.46303 | 103.91042 | 2808 ft | 139 kts | 20° |
| 2026-04-27 11:23 | 30.47216 | 103.91466 | 2629 ft | 141 kts | 20° |
| 2026-04-27 11:23 | 30.48133 | 103.91894 | 2444 ft | 144 kts | 19° |
| 2026-04-27 11:24 | 30.49078 | 103.92333 | 2255 ft | 144 kts | 21° |
| 2026-04-27 11:24 | 30.50028 | 103.92778 | 2024 ft | 147 kts | 20° |
| 2026-04-27 11:24 | 30.50983 | 103.93218 | 1838 ft | 148 kts | 20° |
| 2026-04-27 11:24 | 30.51951 | 103.93669 | 1689 ft | 150 kts | 20° |
| 2026-04-27 11:25 | 30.52879 | 103.94092 | 1637 ft | 122 kts | 22° |
| 2026-04-27 11:25 | 30.53515 | 103.94392 | 1637 ft | 72 kts | 24° |
| 2026-04-27 11:25 | 30.53809 | 103.94534 | 1637 ft | 33 kts | 21° |
| 2026-04-27 11:25 | 30.53999 | 103.94610 | 1637 ft | 25 kts | 13° |
| 2026-04-27 11:26 | 30.54160 | 103.94621 | 1637 ft | 17 kts | 355° |
| 2026-04-27 11:26 | 30.54252 | 103.94606 | 1637 ft | 12 kts | 349° |
| 2026-04-27 11:26 | 30.54325 | 103.94560 | 1637 ft | 12 kts | 301° |
| 2026-04-27 11:26 | 30.54370 | 103.94479 | 1637 ft | 12 kts | 334° |
| 2026-04-27 11:27 | 30.54449 | 103.94501 | 1637 ft | 12 kts | 21° |
| 2026-04-27 11:27 | 30.54530 | 103.94532 | 1637 ft | 12 kts | 18° |
| 2026-04-27 11:27 | 30.54610 | 103.94569 | 1637 ft | 12 kts | 22° |
| 2026-04-27 11:27 | 30.54691 | 103.94607 | 1637 ft | 12 kts | 21° |
| 2026-04-27 11:28 | 30.54776 | 103.94646 | 1637 ft | 12 kts | 22° |
| 2026-04-27 11:28 | 30.54863 | 103.94660 | 1637 ft | 13 kts | 340° |
| 2026-04-27 11:28 | 30.54950 | 103.94617 | 1637 ft | 14 kts | 337° |
| 2026-04-27 11:28 | 30.55041 | 103.94572 | 1637 ft | 14 kts | 336° |
| 2026-04-27 11:29 | 30.55146 | 103.94519 | 1637 ft | 18 kts | 335° |
| 2026-04-27 11:29 | 30.55269 | 103.94458 | 1637 ft | 19 kts | 337° |
| 2026-04-27 11:29 | 30.55389 | 103.94398 | 1637 ft | 18 kts | 336° |
| 2026-04-27 11:29 | 30.55506 | 103.94338 | 1637 ft | 17 kts | 337° |
| 2026-04-27 11:30 | 30.55620 | 103.94282 | 1637 ft | 17 kts | 337° |
| 2026-04-27 11:30 | 30.55731 | 103.94227 | 1637 ft | 16 kts | 336° |
| 2026-04-27 11:30 | 30.55840 | 103.94209 | 1637 ft | 15 kts | 355° |
| 2026-04-27 11:30 | 30.55941 | 103.94237 | 1637 ft | 14 kts | 22° |
| 2026-04-27 11:31 | 30.56038 | 103.94280 | 1637 ft | 14 kts | 21° |
| 2026-04-27 11:31 | 30.56134 | 103.94325 | 1637 ft | 14 kts | 24° |
| 2026-04-27 11:31 | 30.56229 | 103.94371 | 1637 ft | 14 kts | 21° |
| 2026-04-27 11:31 | 30.56326 | 103.94415 | 1637 ft | 14 kts | 21° |
| 2026-04-27 11:32 | 30.56422 | 103.94459 | 1637 ft | 14 kts | 22° |
| 2026-04-27 11:32 | 30.56516 | 103.94504 | 1637 ft | 14 kts | 22° |
| 2026-04-27 11:32 | 30.56611 | 103.94548 | 1637 ft | 14 kts | 21° |
| 2026-04-27 11:32 | 30.56705 | 103.94592 | 1637 ft | 14 kts | 22° |
| 2026-04-27 11:33 | 30.56799 | 103.94636 | 1637 ft | 14 kts | 21° |
| 2026-04-27 11:33 | 30.56896 | 103.94673 | 1637 ft | 14 kts | 13° |
| 2026-04-27 11:33 | 30.56993 | 103.94698 | 1637 ft | 14 kts | 14° |
| 2026-04-27 11:33 | 30.57086 | 103.94740 | 1637 ft | 14 kts | 22° |
| 2026-04-27 11:34 | 30.57183 | 103.94785 | 1637 ft | 15 kts | 22° |
| 2026-04-27 11:34 | 30.57280 | 103.94829 | 1637 ft | 14 kts | 21° |
| 2026-04-27 11:34 | 30.57377 | 103.94873 | 1637 ft | 14 kts | 22° |
| 2026-04-27 11:34 | 30.57471 | 103.94919 | 1637 ft | 14 kts | 22° |
| 2026-04-27 11:35 | 30.57523 | 103.95000 | 1637 ft | 14 kts | 105° |
| 2026-04-27 11:35 | 30.57489 | 103.95106 | 1637 ft | 14 kts | 112° |
| 2026-04-27 11:35 | 30.57452 | 103.95212 | 1637 ft | 10 kts | 115° |
| 2026-04-27 11:35 | 30.57399 | 103.95233 | 1637 ft | 7 kts | 178° |
| 2026-04-27 11:36 | 30.57365 | 103.95233 | 1637 ft | 2 kts | 180° |
| 2026-04-27 11:36 | 30.57357 | 103.95233 | 1637 ft | 0 kts | 180° |